Startpagina
METAR-TAF:

METAR-TAF

Vliegvelden :

Djedda, Saoedi-Arabië

breedte: 21-42N, lengte: 039-11E, hoogte: 15 m

Actueel weer

Dit bericht is 6 minuten geleden gemaakt, om 16:00 UTC
Wind 8 kt uit het zuiden
Temperatuur 30°C
Vochtigheid 66%
Druk 1010 hPa
Zicht 10 km of meer
geen wolken onder 1500 m en geen cumulonimbus

METAR: OEJN 191600Z 18008KT CAVOK 30/23 Q1010 NOSIG

Tijdstip: 19:06 (16:06 UTC)

Verwachting

Dit bericht is 5 uur en het 6 minuten geleden gemaakt, om 11:00 UTC
Verwachting geldig van 19 om 12 UTC tot 20 om 18 UTC
Wind 14 kt uit het zuidwesten
Zicht: 7000 m
Verspreide wolken op 4000 ft
Verspreide wolken op 10000 ft
Tijdelijke
van 19 om 14 UTC tot 19 om 24 UTC
Weinig wolken op 3500 ft, Cumulonimbus.
Wijzigt naar
van 19 om 18 UTC tot 19 om 20 UTC
Wind 10 kt uit het zuidzuidoosten

TAF: OEJN 191100Z 1912/2018 22014KT 7000 SCT040 SCT100 TEMPO 1914/1924 FEW035CB BECMG 1918/1920 16010KT

Waarnemingen en weersverwachtingen van meer dan 4000 vliegvelden (METAR en TAF).

De beschikbare stations zijn de gele en rode punten op de kaart.

Ga met uw muis naar het station om de naam te zien.

Klik dan om waarnemingen en weersverwachtingen te zien.

kaart wijzigen: klik op de groene knoppen met een zwart kruis om in te zoomen, op de groene knop met een streepje om uit te zoomen of op de groene pijlen voor aangrenzende kaarten.


METAR-TAF: